createdAt,value
2022-10-01T00:01:18.416Z,1.10
2022-10-01T00:03:47.046Z,1.15
2022-10-01T00:06:24.723Z,1.00
2022-10-01T00:08:52.510Z,1.10
2022-10-01T00:11:23.521Z,1.30
2022-10-01T00:13:51.798Z,1.10
2022-10-01T00:16:21.292Z,1.10
2022-10-01T00:18:49.139Z,2.60
2022-10-01T00:21:22.151Z,1.52
2022-10-01T00:23:55.628Z,1.10
2022-10-01T00:26:27.093Z,1.42
2022-10-01T00:28:56.889Z,1.10
2022-10-01T00:31:25.065Z,2.40
2022-10-01T00:33:53.739Z,1.10
2022-10-01T00:36:21.604Z,1.08
2022-10-01T00:38:48.731Z,1.20
2022-10-01T00:41:17.047Z,8.00
2022-10-01T00:43:47.318Z,8.30
2022-10-01T00:46:21.602Z,6.38
2022-10-01T00:49:07.011Z,7.82
2022-10-01T00:51:41.775Z,12.65
2022-10-01T00:54:14.242Z,8.25
2022-10-01T00:56:42.865Z,4.10
2022-10-01T00:59:11.722Z,1.00
2022-10-01T01:01:39.325Z,0.95
2022-10-01T01:04:16.198Z,2.00
2022-10-01T01:06:53.653Z,1.00
2022-10-01T01:09:25.586Z,0.88
2022-10-01T01:12:12.379Z,1.05
2022-10-01T01:15:04.744Z,1.00
2022-10-01T01:17:53.272Z,1.00
2022-10-01T01:20:46.056Z,1.00
2022-10-01T01:23:16.296Z,1.05
2022-10-01T01:25:59.521Z,1.00
2022-10-01T01:28:38.487Z,0.93
2022-10-01T01:31:10.193Z,1.00
2022-10-01T01:33:40.338Z,1.00
2022-10-01T01:36:13.728Z,1.10
2022-10-01T01:38:46.214Z,0.90
2022-10-01T01:41:17.895Z,0.90
2022-10-01T01:43:48.139Z,1.50
2022-10-01T01:46:17.587Z,0.95
2022-10-01T01:48:49.389Z,0.90
2022-10-01T01:51:25.967Z,0.90
2022-10-01T01:53:54.279Z,1.20
2022-10-01T01:56:21.527Z,1.00
2022-10-01T01:58:49.068Z,1.00
2022-10-01T02:01:40.215Z,1.00
2022-10-01T02:04:18.666Z,1.00
2022-10-01T02:07:07.612Z,0.90
2022-10-01T02:09:46.976Z,1.10
2022-10-01T02:12:32.408Z,1.00
2022-10-01T02:15:11.739Z,0.95
2022-10-01T02:18:09.404Z,1.00
2022-10-01T02:20:45.865Z,1.00
2022-10-01T02:23:19.573Z,1.00
2022-10-01T02:25:52.083Z,1.00
2022-10-01T02:28:22.968Z,1.33
2022-10-01T02:30:55.195Z,1.00
2022-10-01T02:33:27.183Z,1.00
2022-10-01T02:35:56.926Z,1.00
2022-10-01T02:38:25.709Z,0.93
2022-10-01T02:40:58.723Z,0.90
2022-10-01T02:43:32.136Z,1.00
2022-10-01T02:46:28.286Z,0.90
2022-10-01T02:48:56.786Z,1.00
2022-10-01T02:51:37.122Z,1.10
2022-10-01T02:54:13.953Z,0.90
2022-10-01T02:57:00.251Z,1.02
2022-10-01T02:59:27.416Z,1.00
2022-10-01T03:01:54.931Z,1.00
2022-10-01T03:04:22.161Z,1.02
2022-10-01T03:06:49.336Z,1.02
2022-10-01T03:09:16.487Z,1.10
2022-10-01T03:11:43.647Z,1.10
2022-10-01T03:14:11.043Z,1.10
2022-10-01T03:16:38.156Z,1.05
2022-10-01T03:19:05.397Z,1.00
2022-10-01T03:21:32.783Z,1.20
2022-10-01T03:24:00.254Z,1.40
2022-10-01T03:26:27.522Z,1.00
2022-10-01T03:28:54.636Z,1.10
2022-10-01T03:31:21.862Z,1.10
2022-10-01T03:33:49.102Z,1.07
2022-10-01T03:36:16.341Z,1.00
2022-10-01T03:38:43.531Z,1.00
2022-10-01T03:41:10.697Z,1.00
2022-10-01T03:43:37.847Z,1.30
2022-10-01T03:46:05.074Z,1.10
2022-10-01T03:48:32.283Z,1.30
2022-10-01T03:51:00.318Z,1.20
2022-10-01T03:53:28.310Z,1.00
2022-10-01T03:55:55.672Z,1.90
2022-10-01T03:58:23.272Z,1.00
2022-10-01T04:00:51.221Z,1.20
2022-10-01T04:03:18.533Z,1.00
2022-10-01T04:05:46.041Z,1.00
2022-10-01T04:08:14.237Z,1.20
2022-10-01T04:10:42.058Z,1.20
2022-10-01T04:13:09.222Z,1.10
2022-10-01T04:15:36.591Z,1.20
2022-10-01T04:18:05.951Z,1.05
2022-10-01T04:20:34.830Z,1.10
2022-10-01T04:23:02.247Z,1.10
2022-10-01T04:25:29.991Z,1.10
2022-10-01T04:28:00.286Z,1.60
2022-10-01T04:30:30.854Z,1.20
2022-10-01T04:32:58.496Z,1.10
2022-10-01T04:35:26.273Z,1.00
2022-10-01T04:38:03.410Z,1.10
2022-10-01T04:40:32.406Z,1.05
2022-10-01T04:42:59.674Z,1.00
2022-10-01T04:45:26.849Z,1.10
2022-10-01T04:47:56.184Z,1.17
2022-10-01T04:50:24.974Z,1.27
2022-10-01T04:52:52.641Z,1.10
2022-10-01T04:55:20.913Z,0.90
2022-10-01T04:57:48.379Z,1.02
2022-10-01T05:00:18.304Z,1.10
2022-10-01T05:02:49.970Z,1.15
2022-10-01T05:05:18.846Z,1.00
2022-10-01T05:07:46.542Z,1.00
2022-10-01T05:10:19.723Z,1.00
2022-10-01T05:12:47.873Z,1.10
2022-10-01T05:15:16.631Z,2.30
2022-10-01T05:17:43.982Z,1.35
2022-10-01T05:20:19.976Z,1.10
2022-10-01T05:22:48.875Z,2.40
2022-10-01T05:25:17.750Z,1.05
2022-10-01T05:27:45.376Z,1.10
2022-10-01T05:30:14.730Z,1.00
2022-10-01T05:32:41.857Z,1.10
2022-10-01T05:35:11.902Z,1.10
2022-10-01T05:37:39.046Z,1.40
2022-10-01T05:40:06.509Z,1.17
2022-10-01T05:42:33.645Z,1.10
2022-10-01T05:45:01.509Z,1.20
2022-10-01T05:47:28.685Z,1.00
2022-10-01T05:49:55.859Z,1.00
2022-10-01T05:52:22.969Z,1.08
2022-10-01T05:54:50.115Z,1.60
2022-10-01T05:57:17.237Z,1.20
2022-10-01T05:59:44.358Z,1.15
2022-10-01T06:02:11.505Z,1.00
2022-10-01T06:04:41.221Z,1.10
2022-10-01T06:07:08.692Z,1.15
2022-10-01T06:09:35.810Z,1.08
2022-10-01T06:12:05.443Z,1.10
2022-10-01T06:14:32.579Z,1.10
2022-10-01T06:16:59.735Z,1.10
2022-10-01T06:19:26.827Z,2.03
2022-10-01T06:21:53.951Z,1.10
2022-10-01T06:24:21.051Z,1.08
2022-10-01T06:26:48.934Z,1.20
2022-10-01T06:29:16.104Z,1.00
2022-10-01T06:31:43.282Z,1.00
2022-10-01T06:34:10.414Z,1.00
2022-10-01T06:36:37.549Z,1.10
2022-10-01T06:39:04.695Z,1.08
2022-10-01T06:41:32.029Z,1.10
2022-10-01T06:43:59.305Z,1.10
2022-10-01T06:46:26.488Z,1.10
2022-10-01T06:48:53.666Z,1.00
2022-10-01T06:51:40.781Z,1.10
2022-10-01T06:54:07.906Z,1.00
2022-10-01T06:56:35.512Z,1.20
2022-10-01T06:59:03.779Z,1.15
2022-10-01T07:01:32.874Z,1.52
2022-10-01T07:04:00.458Z,1.20
2022-10-01T07:06:28.019Z,1.00
2022-10-01T07:08:55.434Z,1.00
2022-10-01T07:11:22.526Z,1.10
2022-10-01T07:13:54.360Z,1.20
2022-10-01T07:16:21.961Z,1.10
2022-10-01T07:18:49.130Z,1.00
2022-10-01T07:21:16.245Z,1.10
2022-10-01T07:23:43.393Z,1.03
2022-10-01T07:26:10.561Z,1.20
2022-10-01T07:28:37.763Z,3.75
2022-10-01T07:31:12.343Z,1.13
2022-10-01T07:33:40.089Z,1.00
2022-10-01T07:36:08.705Z,1.35
2022-10-01T07:38:36.246Z,1.17
2022-10-01T07:41:03.591Z,1.17
2022-10-01T07:43:32.168Z,1.13
2022-10-01T07:46:00.225Z,1.10
2022-10-01T07:48:27.946Z,1.20
2022-10-01T07:50:55.326Z,1.10
2022-10-01T07:53:24.015Z,1.10
2022-10-01T07:55:51.167Z,1.10
2022-10-01T07:58:18.721Z,1.30
2022-10-01T08:00:45.975Z,1.20
2022-10-01T08:03:13.178Z,1.10
2022-10-01T08:05:42.631Z,1.20
2022-10-01T08:08:10.236Z,1.27
2022-10-01T08:10:38.770Z,5.35
2022-10-01T08:13:14.174Z,1.27
2022-10-01T08:15:42.863Z,1.10
2022-10-01T08:18:11.240Z,1.15
2022-10-01T08:20:39.720Z,1.00
2022-10-01T08:23:10.332Z,1.30
2022-10-01T08:25:40.674Z,1.40
2022-10-01T08:28:09.260Z,1.30
2022-10-01T08:30:41.460Z,1.20
2022-10-01T08:33:10.923Z,1.23
2022-10-01T08:35:40.212Z,1.33
2022-10-01T08:38:08.059Z,1.30
2022-10-01T08:40:40.829Z,1.80
2022-10-01T08:43:27.558Z,1.42
2022-10-01T08:45:59.677Z,1.20
2022-10-01T08:48:57.195Z,1.80
2022-10-01T08:51:39.858Z,1.40
2022-10-01T08:54:20.255Z,1.20
2022-10-01T08:56:47.923Z,1.20
2022-10-01T08:59:29.510Z,1.10
2022-10-01T09:01:59.003Z,1.67
2022-10-01T09:04:27.561Z,1.30
2022-10-01T09:07:23.665Z,1.20
2022-10-01T09:10:09.694Z,1.10
2022-10-01T09:13:04.679Z,1.17
2022-10-01T09:15:39.651Z,1.40
2022-10-01T09:18:38.719Z,1.75
2022-10-01T09:21:33.060Z,2.30
2022-10-01T09:24:10.182Z,1.30
2022-10-01T09:26:41.446Z,1.20
2022-10-01T09:29:15.553Z,3.00
2022-10-01T09:31:47.197Z,1.17
2022-10-01T09:34:19.254Z,1.20
2022-10-01T09:37:07.488Z,2.07
2022-10-01T09:40:22.162Z,1.10
2022-10-01T09:42:49.614Z,1.42
2022-10-01T09:45:18.610Z,1.30
2022-10-01T09:47:50.374Z,1.50
2022-10-01T09:50:30.838Z,2.30
2022-10-01T09:53:00.878Z,1.27
2022-10-01T09:55:39.088Z,1.73
2022-10-01T09:58:19.167Z,3.33
2022-10-01T10:00:48.257Z,8.20
2022-10-01T10:03:30.819Z,9.18
2022-10-01T10:06:02.187Z,9.37
2022-10-01T10:08:40.225Z,7.32
2022-10-01T10:11:10.455Z,10.77
2022-10-01T10:13:40.951Z,9.30
2022-10-01T10:16:24.788Z,9.65
2022-10-01T10:18:56.161Z,11.45
2022-10-01T10:21:29.571Z,15.25
2022-10-01T10:23:59.442Z,11.68
2022-10-01T10:26:32.443Z,9.83
2022-10-01T10:29:05.578Z,8.73
2022-10-01T10:31:44.694Z,7.53
2022-10-01T10:34:16.418Z,14.32
2022-10-01T10:36:45.554Z,12.02
2022-10-01T10:39:29.264Z,11.27
2022-10-01T10:41:58.716Z,11.80
2022-10-01T10:44:31.915Z,11.30
2022-10-01T10:47:02.571Z,10.03
2022-10-01T10:49:32.302Z,9.05
2022-10-01T10:52:01.203Z,9.85
2022-10-01T10:54:34.254Z,8.50
2022-10-01T10:57:21.235Z,6.85
2022-10-01T11:00:04.603Z,8.10
2022-10-01T11:02:33.541Z,6.63
2022-10-01T11:05:05.461Z,8.68
2022-10-01T11:07:33.265Z,9.10
2022-10-01T11:10:08.353Z,10.90
2022-10-01T11:12:56.382Z,11.30
2022-10-01T11:15:29.938Z,8.00
2022-10-01T11:18:27.820Z,9.05
2022-10-01T11:21:16.858Z,11.18
2022-10-01T11:23:56.185Z,8.75
2022-10-01T11:26:45.762Z,7.97
2022-10-01T11:29:30.650Z,10.60
2022-10-01T11:32:27.596Z,9.45
2022-10-01T11:35:23.072Z,9.18
2022-10-01T11:38:06.099Z,5.72
2022-10-01T11:40:41.330Z,6.43
2022-10-01T11:43:34.293Z,5.67
2022-10-01T11:46:09.801Z,7.88
2022-10-01T11:48:46.421Z,7.70
2022-10-01T11:51:17.901Z,8.50
2022-10-01T11:53:50.278Z,10.85
2022-10-01T11:56:42.742Z,9.13
2022-10-01T11:59:22.397Z,10.18
2022-10-01T12:02:19.050Z,7.07
2022-10-01T12:04:58.087Z,7.57
2022-10-01T12:07:44.005Z,8.35
2022-10-01T12:10:34.362Z,11.73
2022-10-01T12:13:07.691Z,9.47
2022-10-01T12:15:41.763Z,8.03
2022-10-01T12:18:20.674Z,7.55
2022-10-01T12:21:01.358Z,8.18
2022-10-01T12:23:34.645Z,13.68
2022-10-01T12:26:29.636Z,9.82
2022-10-01T12:29:06.610Z,8.07
2022-10-01T12:31:41.739Z,11.10
2022-10-01T12:34:29.872Z,8.23
2022-10-01T12:37:34.911Z,9.65
2022-10-01T12:40:32.634Z,9.45
2022-10-01T12:43:31.831Z,7.00
2022-10-01T12:46:22.311Z,9.85
2022-10-01T12:49:01.929Z,6.13
2022-10-01T12:51:54.569Z,10.55
2022-10-01T12:54:58.950Z,8.98
2022-10-01T12:57:28.881Z,12.95
2022-10-01T13:00:05.084Z,8.40
2022-10-01T13:02:35.175Z,8.27
2022-10-01T13:05:29.658Z,11.20
2022-10-01T13:08:24.727Z,9.55
2022-10-01T13:11:24.790Z,8.03
2022-10-01T13:13:53.142Z,9.35
2022-10-01T13:16:40.430Z,7.50
2022-10-01T13:19:24.772Z,8.63
2022-10-01T13:22:18.426Z,8.57
2022-10-01T13:24:51.183Z,9.25
2022-10-01T13:27:28.355Z,9.88
2022-10-01T13:29:59.908Z,11.43
2022-10-01T13:32:57.686Z,9.65
2022-10-01T13:35:35.900Z,13.50
2022-10-01T13:38:17.340Z,7.17
2022-10-01T13:40:44.719Z,9.98
2022-10-01T13:43:20.640Z,11.60
2022-10-01T13:45:50.687Z,10.13
2022-10-01T13:48:23.496Z,10.48
2022-10-01T13:51:04.972Z,10.02
2022-10-01T13:53:44.863Z,8.23
2022-10-01T13:56:26.471Z,10.23
2022-10-01T13:58:54.651Z,10.20
2022-10-01T14:01:24.803Z,9.65
2022-10-01T14:04:05.107Z,8.85
2022-10-01T14:06:35.274Z,7.85
2022-10-01T14:09:19.216Z,11.80
2022-10-01T14:12:14.377Z,6.85
2022-10-01T14:15:08.550Z,8.55
2022-10-01T14:17:37.031Z,6.72
2022-10-01T14:20:05.088Z,10.80
2022-10-01T14:22:41.006Z,9.25
2022-10-01T14:25:17.098Z,9.50
2022-10-01T14:27:59.290Z,7.53
2022-10-01T14:31:04.512Z,10.05
2022-10-01T14:34:06.567Z,7.35
2022-10-01T14:36:47.129Z,8.15
2022-10-01T14:39:18.338Z,8.33
2022-10-01T14:41:47.205Z,5.73
2022-10-01T14:44:36.236Z,7.03
2022-10-01T14:47:19.783Z,9.05
2022-10-01T14:49:48.426Z,7.55
2022-10-01T14:52:28.630Z,9.57
2022-10-01T14:55:04.472Z,9.05
2022-10-01T14:57:47.237Z,7.03
2022-10-01T15:00:20.376Z,11.82
2022-10-01T15:02:49.909Z,8.57
2022-10-01T15:05:21.875Z,10.13
2022-10-01T15:07:49.197Z,7.65
2022-10-01T15:10:18.922Z,7.63
2022-10-01T15:12:50.297Z,10.23
2022-10-01T15:15:24.525Z,8.53
2022-10-01T15:17:52.351Z,9.93
2022-10-01T15:20:19.804Z,9.52
2022-10-01T15:22:49.082Z,7.95
2022-10-01T15:25:25.582Z,9.50
2022-10-01T15:27:56.678Z,8.73
2022-10-01T15:30:26.452Z,8.87
2022-10-01T15:32:54.353Z,6.60
2022-10-01T15:35:23.396Z,7.27
2022-10-01T15:37:51.706Z,9.45
2022-10-01T15:40:30.574Z,12.35
2022-10-01T15:43:24.155Z,8.60
2022-10-01T15:46:17.255Z,8.15
2022-10-01T15:48:46.524Z,6.57
2022-10-01T15:51:13.994Z,9.98
2022-10-01T15:53:41.312Z,8.48
2022-10-01T15:56:12.974Z,9.15
2022-10-01T15:58:52.108Z,10.52
2022-10-01T16:01:26.830Z,9.30
2022-10-01T16:04:04.493Z,9.35
2022-10-01T16:06:47.191Z,10.80
2022-10-01T16:09:18.542Z,10.38
2022-10-01T16:11:59.921Z,10.48
2022-10-01T16:14:43.773Z,8.70
2022-10-01T16:17:17.184Z,10.50
2022-10-01T16:19:48.749Z,10.73
2022-10-01T16:22:29.335Z,10.38
2022-10-01T16:25:00.207Z,7.80
2022-10-01T16:27:28.497Z,11.50
2022-10-01T16:30:05.334Z,8.87
2022-10-01T16:32:34.150Z,10.87
2022-10-01T16:35:23.086Z,9.47
2022-10-01T16:37:52.840Z,9.13
2022-10-01T16:40:22.246Z,7.57
2022-10-01T16:42:50.594Z,10.98
2022-10-01T16:45:27.573Z,9.02
2022-10-01T16:47:56.701Z,9.30
2022-10-01T16:50:24.983Z,7.70
2022-10-01T16:52:53.756Z,9.15
2022-10-01T16:55:27.282Z,7.90
2022-10-01T16:57:54.797Z,8.65
2022-10-01T17:00:25.641Z,8.60
2022-10-01T17:02:54.380Z,10.32
2022-10-01T17:05:29.314Z,9.45
2022-10-01T17:08:05.085Z,9.48
2022-10-01T17:10:36.429Z,10.70
2022-10-01T17:13:03.859Z,10.55
2022-10-01T17:15:32.065Z,10.43
2022-10-01T17:17:59.551Z,10.18
2022-10-01T17:20:29.212Z,14.17
2022-10-01T17:22:58.187Z,10.30
2022-10-01T17:25:32.179Z,10.43
2022-10-01T17:28:02.325Z,9.13
2022-10-01T17:30:30.708Z,11.93
2022-10-01T17:32:59.843Z,10.85
2022-10-01T17:35:29.687Z,13.45
2022-10-01T17:37:57.105Z,12.48
2022-10-01T17:40:24.339Z,12.05
2022-10-01T17:42:51.622Z,12.45
2022-10-01T17:45:18.836Z,11.85
2022-10-01T17:47:48.272Z,11.43
2022-10-01T17:50:16.345Z,11.95
2022-10-01T17:52:46.485Z,13.10
2022-10-01T17:55:13.776Z,11.70
2022-10-01T17:57:40.942Z,13.07
2022-10-01T18:00:08.870Z,12.50
2022-10-01T18:02:43.084Z,11.07
2022-10-01T18:05:12.743Z,13.32
2022-10-01T18:07:40.656Z,12.13
2022-10-01T18:10:11.220Z,14.07
2022-10-01T18:12:38.527Z,12.68
2022-10-01T18:15:06.207Z,11.27
2022-10-01T18:17:36.335Z,13.83
2022-10-01T18:20:07.091Z,17.10
2022-10-01T18:22:37.735Z,11.18
2022-10-01T18:25:06.875Z,11.77
2022-10-01T18:27:35.729Z,13.15
2022-10-01T18:30:02.999Z,14.27
2022-10-01T18:32:38.005Z,11.33
2022-10-01T18:35:18.933Z,13.30
2022-10-01T18:37:58.302Z,17.90
2022-10-01T18:40:36.253Z,12.23
2022-10-01T18:43:13.603Z,11.65
2022-10-01T18:45:52.765Z,12.25
2022-10-01T18:48:22.898Z,12.75
2022-10-01T18:51:09.604Z,14.05
2022-10-01T18:53:55.536Z,13.05
2022-10-01T18:56:33.528Z,13.83
2022-10-01T18:59:39.797Z,12.53
2022-10-01T19:02:50.311Z,12.30
2022-10-01T19:05:54.581Z,14.20
2022-10-01T19:08:49.942Z,12.48
2022-10-01T19:11:38.204Z,12.65
2022-10-01T19:14:26.358Z,13.60
2022-10-01T19:17:05.762Z,12.27
2022-10-01T19:19:47.608Z,11.45
2022-10-01T19:22:46.394Z,10.05
2022-10-01T19:25:33.115Z,12.98
2022-10-01T19:28:11.895Z,13.07
2022-10-01T19:31:08.425Z,11.65
2022-10-01T19:33:44.253Z,9.63
2022-10-01T19:36:34.696Z,11.83
2022-10-01T19:39:08.820Z,15.30
2022-10-01T19:41:42.998Z,12.02
2022-10-01T19:44:16.667Z,12.55
2022-10-01T19:46:47.243Z,13.23
2022-10-01T19:49:14.393Z,10.52
2022-10-01T19:51:57.046Z,11.93
2022-10-01T19:54:32.520Z,14.45
2022-10-01T19:57:09.565Z,12.82
2022-10-01T19:59:36.826Z,9.37
2022-10-01T20:02:15.620Z,12.93
2022-10-01T20:04:56.118Z,12.85
2022-10-01T20:07:37.121Z,11.48
2022-10-01T20:10:20.045Z,12.13
2022-10-01T20:13:09.434Z,10.38
2022-10-01T20:16:22.367Z,8.85
2022-10-01T20:19:04.813Z,12.20
2022-10-01T20:21:59.427Z,15.40
2022-10-01T20:24:51.810Z,12.77
2022-10-01T20:27:31.092Z,13.80
2022-10-01T20:30:06.112Z,14.45
2022-10-01T20:32:40.174Z,10.95
2022-10-01T20:35:16.301Z,14.87
2022-10-01T20:37:46.422Z,15.32
2022-10-01T20:40:25.540Z,13.85
2022-10-01T20:43:17.642Z,11.70
2022-10-01T20:45:47.399Z,13.75
2022-10-01T20:48:40.734Z,13.05
2022-10-01T20:51:32.444Z,11.63
2022-10-01T20:54:06.599Z,13.18
2022-10-01T20:56:39.834Z,13.23
2022-10-01T20:59:21.338Z,12.40
2022-10-01T21:02:02.328Z,11.55
2022-10-01T21:04:37.589Z,11.53
2022-10-01T21:07:26.813Z,12.93
2022-10-01T21:09:57.384Z,14.05
2022-10-01T21:12:37.865Z,14.10
2022-10-01T21:15:06.936Z,19.80
2022-10-01T21:18:11.193Z,14.52
2022-10-01T21:20:51.546Z,15.00
2022-10-01T21:23:46.127Z,14.70
2022-10-01T21:26:25.685Z,13.33
2022-10-01T21:29:11.666Z,16.63
2022-10-01T21:32:07.593Z,11.85
2022-10-01T21:35:13.160Z,16.50
2022-10-01T21:37:43.048Z,15.55
2022-10-01T21:40:25.087Z,13.20
2022-10-01T21:43:04.308Z,12.18
2022-10-01T21:45:39.014Z,16.00
2022-10-01T21:48:18.537Z,13.18
2022-10-01T21:50:59.162Z,14.15
2022-10-01T21:53:29.850Z,10.77
2022-10-01T21:56:21.954Z,13.13
2022-10-01T21:59:08.780Z,16.75
2022-10-01T22:01:50.983Z,14.85
2022-10-01T22:04:48.308Z,14.13
2022-10-01T22:07:36.277Z,14.15
2022-10-01T22:10:12.545Z,14.20
2022-10-01T22:12:42.194Z,13.43
2022-10-01T22:15:25.729Z,15.10
2022-10-01T22:17:54.859Z,14.70
2022-10-01T22:20:27.526Z,16.65
2022-10-01T22:22:59.086Z,13.18
2022-10-01T22:25:28.540Z,14.00
2022-10-01T22:28:19.736Z,16.83
2022-10-01T22:30:49.290Z,16.88
2022-10-01T22:33:27.603Z,13.70
2022-10-01T22:36:06.881Z,14.87
2022-10-01T22:38:51.311Z,18.35
2022-10-01T22:41:31.209Z,16.92
2022-10-01T22:43:59.628Z,16.90
2022-10-01T22:47:07.413Z,18.85
2022-10-01T22:50:06.126Z,17.92
2022-10-01T22:52:55.083Z,16.00
2022-10-01T22:55:37.830Z,13.50
2022-10-01T22:58:43.995Z,17.40
2022-10-01T23:01:23.150Z,16.63
2022-10-01T23:04:05.884Z,14.93
2022-10-01T23:07:00.220Z,18.00
2022-10-01T23:09:35.565Z,15.20
2022-10-01T23:12:17.514Z,15.67
2022-10-01T23:15:09.786Z,14.05
2022-10-01T23:18:06.712Z,19.08
2022-10-01T23:20:46.897Z,17.50
2022-10-01T23:23:34.624Z,17.13
2022-10-01T23:26:29.675Z,14.77
2022-10-01T23:29:21.424Z,13.88
2022-10-01T23:32:23.773Z,13.65
2022-10-01T23:34:53.717Z,13.57
2022-10-01T23:37:51.692Z,10.00
2022-10-01T23:40:22.587Z,8.48
2022-10-01T23:42:55.457Z,8.40
2022-10-01T23:45:41.752Z,8.30
2022-10-01T23:48:09.019Z,10.15
2022-10-01T23:51:05.185Z,9.38
2022-10-01T23:54:02.193Z,9.27
2022-10-01T23:56:57.361Z,6.35
2022-10-01T23:59:38.718Z,7.10
